Time;durP1;ratioP1;P1;durP2;ratioP2;P2;SDS_P1;SDS_P2;PMS_P1;PMS_P2;Temp;Humidity;BMP_temperature;BMP_pressure;BME280_temperature;BME280_humidity;BME280_pressure;Samples;Min_cycle;Max_cycle;Signal;HPM_P1;HPM_P2
2024/02/17 00:01:32;;;;;;;38.22;18.17;;;;;;;;;;5073827;28;20020;-64
2024/02/17 00:03:58;;;;;;;47.42;20.38;;;;;;;;;;5071380;28;20035;-64
2024/02/17 00:06:24;;;;;;;42.78;18.95;;;;;;;;;;5073498;28;20031;-64
2024/02/17 00:08:50;;;;;;;34.13;16.90;;;;;;;;;;5069142;28;20016;-64
2024/02/17 00:11:16;;;;;;;34.35;16.98;;;;;;;;;;5067241;28;20029;-64
2024/02/17 00:13:43;;;;;;;33.67;16.63;;;;;;;;;;5063947;28;20039;-64
2024/02/17 00:16:09;;;;;;;37.08;18.77;;;;;;;;;;5072250;28;20024;-64
2024/02/17 00:18:35;;;;;;;41.58;17.63;;;;;;;;;;5069802;28;20426;-63
2024/02/17 00:21:03;;;;;;;47.38;18.58;;;;;;;;;;5071970;28;20028;-63
2024/02/17 00:23:29;;;;;;;39.90;18.92;;;;;;;;;;5072659;28;20017;-64
2024/02/17 00:25:55;;;;;;;36.08;18.38;;;;;;;;;;5074152;28;20454;-64
2024/02/17 00:28:25;;;;;;;38.55;17.42;;;;;;;;;;5071108;28;20029;-64
2024/02/17 00:30:51;;;;;;;42.53;18.95;;;;;;;;;;5067618;28;20435;-64
2024/02/17 00:33:18;;;;;;;43.95;17.65;;;;;;;;;;5068998;28;20029;-64
2024/02/17 00:35:44;;;;;;;40.72;17.63;;;;;;;;;;5073330;28;20106;-64
2024/02/17 00:38:10;;;;;;;36.88;16.63;;;;;;;;;;5071259;28;20028;-64
2024/02/17 00:40:36;;;;;;;42.70;18.38;;;;;;;;;;5072246;28;20043;-64
2024/02/17 00:43:02;;;;;;;39.05;17.85;;;;;;;;;;5067990;28;20066;-64
2024/02/17 00:45:29;;;;;;;38.72;18.58;;;;;;;;;;5066176;28;20075;-64
2024/02/17 00:47:55;;;;;;;46.53;18.23;;;;;;;;;;5053195;28;20103;-64
2024/02/17 00:50:21;;;;;;;50.85;20.45;;;;;;;;;;5071039;28;20110;-64
2024/02/17 00:52:49;;;;;;;43.60;19.02;;;;;;;;;;5067716;28;20028;-62
2024/02/17 00:55:15;;;;;;;46.17;19.35;;;;;;;;;;5070411;28;20024;-64
2024/02/17 00:57:41;;;;;;;46.35;20.40;;;;;;;;;;5067018;28;20042;-64
2024/02/17 01:00:09;;;;;;;46.80;18.58;;;;;;;;;;5064162;28;20114;-64
2024/02/17 01:02:35;;;;;;;40.28;19.85;;;;;;;;;;5068155;28;20027;-65
2024/02/17 01:05:02;;;;;;;49.00;22.25;;;;;;;;;;5072791;28;20123;-64
2024/02/17 01:07:28;;;;;;;41.13;20.90;;;;;;;;;;5068385;28;20016;-63
2024/02/17 01:09:57;;;;;;;39.00;19.48;;;;;;;;;;5065753;28;20707;-64
2024/02/17 01:12:25;;;;;;;46.17;19.92;;;;;;;;;;5070166;28;20044;-67
2024/02/17 01:14:51;;;;;;;46.22;20.58;;;;;;;;;;5073212;28;20031;-64
2024/02/17 01:17:16;;;;;;;43.75;21.15;;;;;;;;;;5069472;28;20025;-64
2024/02/17 01:19:43;;;;;;;48.28;23.52;;;;;;;;;;5069337;28;20032;-65
2024/02/17 01:22:09;;;;;;;58.55;21.38;;;;;;;;;;5067973;28;20037;-65
2024/02/17 01:24:35;;;;;;;51.88;22.00;;;;;;;;;;5067338;28;20034;-65
2024/02/17 01:27:06;;;;;;;52.70;22.42;;;;;;;;;;5068707;28;20495;-65
2024/02/17 01:29:32;;;;;;;48.85;22.33;;;;;;;;;;5068825;28;20013;-65
2024/02/17 01:31:58;;;;;;;50.80;23.10;;;;;;;;;;5070476;28;20043;-65
2024/02/17 01:34:24;;;;;;;48.63;22.40;;;;;;;;;;5076638;28;20025;-63
2024/02/17 01:36:50;;;;;;;51.97;22.13;;;;;;;;;;5066194;28;20040;-63
2024/02/17 01:39:17;;;;;;;52.55;21.63;;;;;;;;;;5068011;28;20036;-65
2024/02/17 01:41:42;;;;;;;54.97;22.33;;;;;;;;;;5074021;28;20036;-65
2024/02/17 01:44:09;;;;;;;50.03;19.88;;;;;;;;;;5063911;28;20025;-65
2024/02/17 01:46:35;;;;;;;51.65;21.52;;;;;;;;;;5069081;28;20397;-65
2024/02/17 01:49:01;;;;;;;52.00;22.65;;;;;;;;;;5063119;28;20104;-64
2024/02/17 01:51:27;;;;;;;47.22;21.60;;;;;;;;;;5069901;28;20391;-63
2024/02/17 01:53:54;;;;;;;50.28;21.25;;;;;;;;;;5070935;28;20024;-64
2024/02/17 01:56:21;;;;;;;50.50;22.42;;;;;;;;;;5069588;28;20029;-65
2024/02/17 01:58:48;;;;;;;51.38;21.25;;;;;;;;;;5072868;28;20024;-65
2024/02/17 02:01:14;;;;;;;52.85;21.55;;;;;;;;;;5067369;28;20028;-65
2024/02/17 02:03:41;;;;;;;50.55;21.13;;;;;;;;;;5071666;28;20024;-63
2024/02/17 02:06:07;;;;;;;59.83;21.45;;;;;;;;;;5066092;28;20028;-63
2024/02/17 02:08:33;;;;;;;47.92;20.80;;;;;;;;;;5068577;28;20150;-63
2024/02/17 02:11:02;;;;;;;46.95;22.40;;;;;;;;;;5070956;28;20110;-63
2024/02/17 02:13:28;;;;;;;54.80;21.50;;;;;;;;;;5065701;28;20077;-65
2024/02/17 02:15:54;;;;;;;49.55;21.42;;;;;;;;;;5070128;28;20051;-65
2024/02/17 02:18:20;;;;;;;41.97;20.90;;;;;;;;;;5063786;28;20136;-64
2024/02/17 02:20:46;;;;;;;43.58;19.83;;;;;;;;;;5065952;28;20103;-64
2024/02/17 02:23:12;;;;;;;46.42;20.42;;;;;;;;;;5071812;28;20028;-64
2024/02/17 02:25:41;;;;;;;48.13;19.20;;;;;;;;;;5063176;28;20032;-65
2024/02/17 02:28:07;;;;;;;56.20;21.92;;;;;;;;;;5066509;28;20029;-64
2024/02/17 02:30:33;;;;;;;44.30;20.10;;;;;;;;;;5067165;28;20035;-64
2024/02/17 02:32:59;;;;;;;50.28;22.63;;;;;;;;;;5069607;28;20103;-64
2024/02/17 02:35:25;;;;;;;51.70;21.88;;;;;;;;;;5069493;28;20037;-63
2024/02/17 02:37:51;;;;;;;44.78;21.80;;;;;;;;;;5070505;28;20109;-64
2024/02/17 02:40:17;;;;;;;46.47;21.90;;;;;;;;;;5066317;28;20488;-65
2024/02/17 02:42:43;;;;;;;48.65;20.85;;;;;;;;;;5065144;28;20025;-64
2024/02/17 02:45:09;;;;;;;44.42;20.63;;;;;;;;;;5067846;28;20517;-63
2024/02/17 02:47:35;;;;;;;46.10;21.27;;;;;;;;;;5064566;28;20029;-64
2024/02/17 02:50:01;;;;;;;54.97;22.27;;;;;;;;;;5069488;28;20058;-64
2024/02/17 02:52:27;;;;;;;54.58;21.63;;;;;;;;;;5066011;28;20113;-64
2024/02/17 02:54:53;;;;;;;38.67;19.05;;;;;;;;;;5065481;28;20028;-64
2024/02/17 02:57:19;;;;;;;54.38;19.50;;;;;;;;;;5066695;28;20100;-64
2024/02/17 02:59:46;;;;;;;37.75;19.15;;;;;;;;;;5070759;28;20289;-64
2024/02/17 03:02:12;;;;;;;41.97;18.63;;;;;;;;;;5069667;28;20059;-64
2024/02/17 03:04:38;;;;;;;46.03;20.08;;;;;;;;;;5068481;28;20422;-63
2024/02/17 03:07:04;;;;;;;47.53;20.80;;;;;;;;;;5071453;28;20096;-64
2024/02/17 03:09:30;;;;;;;43.00;18.65;;;;;;;;;;5065656;28;20048;-64
2024/02/17 03:11:56;;;;;;;48.20;19.30;;;;;;;;;;5068928;28;20064;-64
2024/02/17 03:14:22;;;;;;;49.15;20.45;;;;;;;;;;5061059;28;20025;-64
2024/02/17 03:16:48;;;;;;;40.75;17.63;;;;;;;;;;5062720;28;20100;-64
2024/02/17 03:19:13;;;;;;;49.13;17.83;;;;;;;;;;5065568;28;20024;-64
2024/02/17 03:21:40;;;;;;;47.17;17.52;;;;;;;;;;5059534;28;20063;-64
2024/02/17 03:24:06;;;;;;;48.97;17.98;;;;;;;;;;5057998;28;20021;-64
2024/02/17 03:26:32;;;;;;;45.00;17.70;;;;;;;;;;5060328;28;20032;-64
2024/02/17 03:28:58;;;;;;;44.50;18.02;;;;;;;;;;5057784;28;20032;-63
2024/02/17 03:31:24;;;;;;;41.17;16.83;;;;;;;;;;5068732;28;20029;-63
2024/02/17 03:33:50;;;;;;;45.53;17.70;;;;;;;;;;5060408;28;20053;-64
2024/02/17 03:36:17;;;;;;;36.55;16.10;;;;;;;;;;5061792;28;20490;-65
2024/02/17 03:38:43;;;;;;;41.65;17.80;;;;;;;;;;5072018;28;20033;-65
2024/02/17 03:41:08;;;;;;;42.70;16.38;;;;;;;;;;5068452;28;20044;-64
2024/02/17 03:43:34;;;;;;;32.15;15.30;;;;;;;;;;5072818;28;20032;-64
2024/02/17 03:46:00;;;;;;;35.97;15.40;;;;;;;;;;5069531;28;20052;-63
2024/02/17 03:48:27;;;;;;;29.13;15.02;;;;;;;;;;5068261;28;20020;-64
2024/02/17 03:50:53;;;;;;;32.78;13.63;;;;;;;;;;5066779;28;20510;-64
2024/02/17 03:53:19;;;;;;;36.95;14.40;;;;;;;;;;5067173;28;20543;-64
2024/02/17 03:55:45;;;;;;;39.15;14.85;;;;;;;;;;5051866;28;20493;-64
2024/02/17 03:58:11;;;;;;;40.03;15.65;;;;;;;;;;5072078;28;20116;-64
2024/02/17 04:00:37;;;;;;;39.40;13.68;;;;;;;;;;5073270;28;20052;-64
2024/02/17 04:03:03;;;;;;;38.80;15.50;;;;;;;;;;5069508;28;20048;-63
2024/02/17 04:05:29;;;;;;;35.78;16.48;;;;;;;;;;5075254;28;20050;-62
2024/02/17 04:07:55;;;;;;;38.85;14.68;;;;;;;;;;5067299;28;20063;-62
2024/02/17 04:10:21;;;;;;;30.52;13.27;;;;;;;;;;5070597;28;20494;-66
2024/02/17 04:12:47;;;;;;;35.53;14.82;;;;;;;;;;5071092;28;20039;-64
2024/02/17 04:15:13;;;;;;;31.73;15.07;;;;;;;;;;5070301;28;20053;-65
2024/02/17 04:17:40;;;;;;;33.78;15.27;;;;;;;;;;5072111;28;20103;-64
2024/02/17 04:20:06;;;;;;;34.92;14.82;;;;;;;;;;5071541;28;20040;-64
2024/02/17 04:22:32;;;;;;;38.20;15.05;;;;;;;;;;5073049;28;20017;-64
2024/02/17 04:24:58;;;;;;;33.92;15.80;;;;;;;;;;5073050;28;20104;-64
2024/02/17 04:27:24;;;;;;;37.80;15.70;;;;;;;;;;5070399;28;20142;-65
2024/02/17 04:29:50;;;;;;;28.33;14.02;;;;;;;;;;5071054;28;20059;-64
2024/02/17 04:32:16;;;;;;;33.65;15.65;;;;;;;;;;5070995;28;20489;-65
2024/02/17 04:34:42;;;;;;;40.38;16.55;;;;;;;;;;5075212;28;20389;-64
2024/02/17 04:37:08;;;;;;;36.65;16.13;;;;;;;;;;5073143;28;20077;-64
2024/02/17 04:39:34;;;;;;;42.88;17.13;;;;;;;;;;5068868;28;20032;-64
2024/02/17 04:42:00;;;;;;;35.88;17.00;;;;;;;;;;5071827;28;20021;-65
2024/02/17 04:44:26;;;;;;;43.83;17.35;;;;;;;;;;5068191;28;20028;-63
2024/02/17 04:46:52;;;;;;;36.20;16.27;;;;;;;;;;5069878;28;20047;-63
2024/02/17 04:49:18;;;;;;;46.95;17.20;;;;;;;;;;5065634;28;20389;-64
2024/02/17 04:51:44;;;;;;;42.42;18.15;;;;;;;;;;5072091;28;20590;-64
2024/02/17 04:54:10;;;;;;;41.72;17.67;;;;;;;;;;5075980;28;20064;-64
2024/02/17 04:56:35;;;;;;;39.15;16.85;;;;;;;;;;5067253;28;20071;-64
2024/02/17 04:59:03;;;;;;;37.25;17.80;;;;;;;;;;5071197;28;20040;-64
2024/02/17 05:01:29;;;;;;;33.88;17.17;;;;;;;;;;5071910;28;20029;-64
2024/02/17 05:03:54;;;;;;;36.60;18.95;;;;;;;;;;5068369;28;20427;-64
2024/02/17 05:06:22;;;;;;;42.90;20.95;;;;;;;;;;5053502;28;20060;-65
2024/02/17 05:08:48;;;;;;;43.72;19.13;;;;;;;;;;5071202;28;20151;-65
2024/02/17 05:11:15;;;;;;;42.00;19.48;;;;;;;;;;5071088;28;20020;-63
2024/02/17 05:13:41;;;;;;;47.10;20.42;;;;;;;;;;5075738;28;20031;-63
2024/02/17 05:16:07;;;;;;;51.22;21.75;;;;;;;;;;5068619;28;20056;-61
2024/02/17 05:18:33;;;;;;;47.47;19.73;;;;;;;;;;5068394;28;20025;-64
2024/02/17 05:20:59;;;;;;;45.55;21.30;;;;;;;;;;5070271;28;20036;-64
2024/02/17 05:23:25;;;;;;;43.83;19.50;;;;;;;;;;5068725;28;20113;-64
2024/02/17 05:25:54;;;;;;;43.17;20.30;;;;;;;;;;5069710;28;20047;-64
2024/02/17 05:28:20;;;;;;;48.50;20.58;;;;;;;;;;5069578;28;20083;-64
2024/02/17 05:30:46;;;;;;;44.25;21.25;;;;;;;;;;5068307;28;20663;-64
2024/02/17 05:33:12;;;;;;;43.80;21.70;;;;;;;;;;5071527;28;20064;-64
2024/02/17 05:35:38;;;;;;;49.35;21.55;;;;;;;;;;5070255;28;20082;-64
2024/02/17 05:38:04;;;;;;;47.80;20.73;;;;;;;;;;5071599;28;20082;-62
2024/02/17 05:40:30;;;;;;;45.88;21.63;;;;;;;;;;5067912;28;20854;-64
2024/02/17 05:42:56;;;;;;;42.17;22.25;;;;;;;;;;5070188;28;20099;-64
2024/02/17 05:45:22;;;;;;;46.53;20.85;;;;;;;;;;5063189;28;20056;-64
2024/02/17 05:47:48;;;;;;;47.38;20.75;;;;;;;;;;5067936;28;20029;-65
2024/02/17 05:50:14;;;;;;;43.78;21.02;;;;;;;;;;5071433;28;20111;-64
2024/02/17 05:52:41;;;;;;;52.38;22.65;;;;;;;;;;5068326;28;20104;-64
2024/02/17 05:55:07;;;;;;;50.10;20.65;;;;;;;;;;5069186;28;20039;-64
2024/02/17 05:57:33;;;;;;;49.08;20.55;;;;;;;;;;5049679;28;20463;-64
2024/02/17 05:59:59;;;;;;;53.35;21.50;;;;;;;;;;5069419;28;20124;-64
2024/02/17 06:02:25;;;;;;;52.70;21.52;;;;;;;;;;5066789;28;20082;-64
2024/02/17 06:04:51;;;;;;;45.15;19.90;;;;;;;;;;5066312;28;20101;-64
2024/02/17 06:07:17;;;;;;;50.72;21.20;;;;;;;;;;5071759;28;20020;-64
2024/02/17 06:09:43;;;;;;;36.05;19.50;;;;;;;;;;5068318;28;20432;-64
2024/02/17 06:12:09;;;;;;;50.08;20.25;;;;;;;;;;5069303;28;20028;-62
2024/02/17 06:14:35;;;;;;;49.00;20.23;;;;;;;;;;5062546;28;20513;-64
2024/02/17 06:17:07;;;;;;;55.25;20.00;;;;;;;;;;5065400;28;20039;-63
2024/02/17 06:22:18;;;;;;;36.42;18.75;;;;;;;;;;5060972;28;20090;-65
2024/02/17 06:24:43;;;;;;;48.30;20.00;;;;;;;;;;5055771;28;20087;-64
2024/02/17 06:27:10;;;;;;;46.92;19.83;;;;;;;;;;5062763;28;20487;-64
2024/02/17 06:29:36;;;;;;;49.83;19.65;;;;;;;;;;5064378;28;20047;-64
2024/02/17 06:32:02;;;;;;;54.45;20.60;;;;;;;;;;5063478;28;20063;-64
2024/02/17 06:34:28;;;;;;;45.22;22.48;;;;;;;;;;5062581;28;20418;-63
2024/02/17 06:36:54;;;;;;;45.47;20.85;;;;;;;;;;5065146;28;20036;-64
2024/02/17 06:39:20;;;;;;;41.00;20.52;;;;;;;;;;5064584;28;20055;-64
2024/02/17 06:41:46;;;;;;;53.28;21.10;;;;;;;;;;5048994;28;20028;-63
2024/02/17 06:44:12;;;;;;;45.08;21.13;;;;;;;;;;5065964;28;20028;-62
2024/02/17 06:46:43;;;;;;;44.50;20.17;;;;;;;;;;5064767;28;20097;-64
2024/02/17 06:49:09;;;;;;;50.30;18.73;;;;;;;;;;5058221;28;20055;-63
2024/02/17 06:51:36;;;;;;;46.53;20.70;;;;;;;;;;5043032;28;20103;-64
2024/02/17 06:54:02;;;;;;;47.15;20.25;;;;;;;;;;5060422;28;20025;-63
2024/02/17 06:56:29;;;;;;;46.20;19.42;;;;;;;;;;5060313;28;20031;-64
2024/02/17 06:58:55;;;;;;;52.10;21.40;;;;;;;;;;5063997;28;20031;-63
2024/02/17 07:01:21;;;;;;;47.22;22.20;;;;;;;;;;5062560;28;20036;-63
2024/02/17 07:03:47;;;;;;;46.42;20.23;;;;;;;;;;5064106;28;20020;-63
2024/02/17 07:06:16;;;;;;;45.80;19.70;;;;;;;;;;5055471;28;20032;-63
2024/02/17 07:08:46;;;;;;;43.25;21.13;;;;;;;;;;5057938;28;20421;-63
2024/02/17 07:11:12;;;;;;;44.40;20.55;;;;;;;;;;5057860;28;20024;-63
2024/02/17 07:13:38;;;;;;;42.90;19.88;;;;;;;;;;5047857;28;20036;-63
2024/02/17 07:16:04;;;;;;;39.22;19.25;;;;;;;;;;5061827;28;20445;-64
2024/02/17 07:18:30;;;;;;;48.80;21.50;;;;;;;;;;5060673;28;20083;-63
2024/02/17 07:20:57;;;;;;;52.35;21.48;;;;;;;;;;5059607;28;20033;-64
2024/02/17 07:23:23;;;;;;;51.97;20.83;;;;;;;;;;5061202;28;20024;-64
2024/02/17 07:25:51;;;;;;;53.60;21.25;;;;;;;;;;5056905;28;20020;-64
2024/02/17 07:28:17;;;;;;;43.05;19.95;;;;;;;;;;5058658;28;20031;-64
2024/02/17 07:30:44;;;;;;;42.33;19.13;;;;;;;;;;5066699;28;20021;-64
2024/02/17 07:33:10;;;;;;;48.83;20.98;;;;;;;;;;5070158;28;20017;-64
2024/02/17 07:35:41;;;;;;;49.55;18.88;;;;;;;;;;5072257;28;20084;-60
2024/02/17 07:38:07;;;;;;;38.67;18.95;;;;;;;;;;5070254;28;20082;-59
2024/02/17 07:40:33;;;;;;;43.63;20.08;;;;;;;;;;5074239;28;20115;-59
2024/02/17 07:42:59;;;;;;;47.70;20.02;;;;;;;;;;5076263;28;20024;-60
2024/02/17 07:45:26;;;;;;;54.08;21.30;;;;;;;;;;5071047;28;20059;-60
2024/02/17 07:47:52;;;;;;;54.13;20.38;;;;;;;;;;5071674;28;20513;-62
2024/02/17 07:50:18;;;;;;;52.67;19.30;;;;;;;;;;5072541;28;20037;-59
2024/02/17 07:52:44;;;;;;;52.88;21.52;;;;;;;;;;5073692;28;20055;-61
2024/02/17 07:55:10;;;;;;;49.38;18.67;;;;;;;;;;5072617;28;20028;-60
2024/02/17 07:57:36;;;;;;;40.05;19.48;;;;;;;;;;5072867;28;20103;-61
2024/02/17 08:00:03;;;;;;;36.40;18.58;;;;;;;;;;5080306;28;20029;-60
2024/02/17 08:02:29;;;;;;;45.63;18.23;;;;;;;;;;5071025;28;20035;-61
2024/02/17 08:04:56;;;;;;;39.72;18.67;;;;;;;;;;5054173;28;20029;-60
2024/02/17 08:07:22;;;;;;;33.83;17.90;;;;;;;;;;5067883;28;20027;-59
2024/02/17 08:09:48;;;;;;;50.72;17.63;;;;;;;;;;5071951;28;20104;-61
2024/02/17 08:12:14;;;;;;;46.65;19.38;;;;;;;;;;5064516;28;20021;-60
2024/02/17 08:14:40;;;;;;;47.33;20.30;;;;;;;;;;5065923;28;20033;-59
2024/02/17 08:17:07;;;;;;;48.03;19.30;;;;;;;;;;5067686;28;20099;-60
2024/02/17 08:19:33;;;;;;;36.97;18.20;;;;;;;;;;5063672;28;20017;-59
2024/02/17 08:21:59;;;;;;;42.15;18.35;;;;;;;;;;5064414;28;20032;-60
2024/02/17 08:24:25;;;;;;;43.58;18.30;;;;;;;;;;5069918;28;20028;-57
2024/02/17 08:26:51;;;;;;;43.70;18.60;;;;;;;;;;5072812;28;20101;-61
2024/02/17 08:29:18;;;;;;;42.03;17.13;;;;;;;;;;5075743;28;20036;-61
2024/02/17 08:31:50;;;;;;;42.97;18.67;;;;;;;;;;5075971;28;20517;-62
2024/02/17 08:34:16;;;;;;;42.08;17.35;;;;;;;;;;5073625;28;20037;-61
2024/02/17 08:36:42;;;;;;;37.92;17.02;;;;;;;;;;5069899;28;20024;-59
2024/02/17 08:39:13;;;;;;;43.17;16.77;;;;;;;;;;5073029;28;20094;-60
2024/02/17 08:41:39;;;;;;;39.15;17.05;;;;;;;;;;5052157;28;20028;-61
2024/02/17 08:44:05;;;;;;;34.45;18.13;;;;;;;;;;5072116;28;20024;-60
2024/02/17 08:46:31;;;;;;;53.85;21.05;;;;;;;;;;5078289;28;20099;-61
2024/02/17 08:48:57;;;;;;;42.17;18.95;;;;;;;;;;5078520;28;20024;-61
2024/02/17 08:51:23;;;;;;;38.35;16.58;;;;;;;;;;5075685;28;20099;-62
2024/02/17 08:53:49;;;;;;;38.60;16.92;;;;;;;;;;5079646;28;20024;-61
2024/02/17 08:56:15;;;;;;;42.28;16.42;;;;;;;;;;5066883;28;20024;-60
2024/02/17 08:58:41;;;;;;;40.15;17.60;;;;;;;;;;5079848;28;20028;-63
2024/02/17 09:01:07;;;;;;;48.08;18.35;;;;;;;;;;5074426;28;20516;-62
2024/02/17 09:03:33;;;;;;;46.63;17.88;;;;;;;;;;5059964;28;20025;-62
2024/02/17 09:05:59;;;;;;;45.33;17.77;;;;;;;;;;5071079;28;20021;-62
2024/02/17 09:08:25;;;;;;;41.22;16.35;;;;;;;;;;5074055;28;20025;-62
2024/02/17 09:10:51;;;;;;;43.42;17.05;;;;;;;;;;5071492;28;20039;-61
2024/02/17 09:13:17;;;;;;;45.45;17.17;;;;;;;;;;5077700;28;20048;-61
2024/02/17 09:15:44;;;;;;;40.50;17.52;;;;;;;;;;5067813;28;20062;-60
2024/02/17 09:18:10;;;;;;;34.08;17.52;;;;;;;;;;5068768;28;20028;-61
2024/02/17 09:20:36;;;;;;;42.55;17.10;;;;;;;;;;5051131;28;20046;-61
2024/02/17 09:23:04;;;;;;;40.40;16.83;;;;;;;;;;5069806;28;20025;-61
2024/02/17 09:25:30;;;;;;;42.65;16.70;;;;;;;;;;5072361;28;20023;-61
2024/02/17 09:27:56;;;;;;;47.15;17.85;;;;;;;;;;5069274;28;20124;-62
2024/02/17 09:30:22;;;;;;;37.90;16.27;;;;;;;;;;5067416;28;20464;-62
2024/02/17 09:32:48;;;;;;;44.55;18.23;;;;;;;;;;5059814;28;20067;-61
2024/02/17 09:35:14;;;;;;;54.88;18.27;;;;;;;;;;5061727;28;20104;-60
2024/02/17 09:37:43;;;;;;;43.22;18.05;;;;;;;;;;5066967;28;20490;-61
2024/02/17 09:40:10;;;;;;;47.72;17.35;;;;;;;;;;5064498;28;20033;-60
2024/02/17 09:42:36;;;;;;;50.10;18.27;;;;;;;;;;5065624;28;20074;-63
2024/02/17 09:45:02;;;;;;;42.20;17.50;;;;;;;;;;5066261;28;20032;-61
2024/02/17 09:47:29;;;;;;;74.32;19.38;;;;;;;;;;5058537;28;20029;-61
2024/02/17 09:49:56;;;;;;;40.42;17.60;;;;;;;;;;5060085;28;20032;-61
2024/02/17 09:52:22;;;;;;;38.40;17.70;;;;;;;;;;5064439;28;20029;-60
2024/02/17 09:54:49;;;;;;;39.47;17.35;;;;;;;;;;5057098;28;20028;-61
2024/02/17 09:57:17;;;;;;;48.95;17.77;;;;;;;;;;5066342;28;20025;-62
2024/02/17 09:59:42;;;;;;;55.78;17.95;;;;;;;;;;5064701;28;20033;-59
2024/02/17 10:02:09;;;;;;;39.22;17.65;;;;;;;;;;5064039;28;20027;-62
2024/02/17 10:04:35;;;;;;;46.20;16.73;;;;;;;;;;5064412;28;20029;-59
2024/02/17 10:07:03;;;;;;;38.88;16.95;;;;;;;;;;5055802;28;20036;-61
2024/02/17 10:09:29;;;;;;;43.03;16.67;;;;;;;;;;5068133;28;20020;-60
2024/02/17 10:11:55;;;;;;;50.13;17.63;;;;;;;;;;5062218;28;20079;-62
2024/02/17 10:14:23;;;;;;;46.03;16.13;;;;;;;;;;5061078;28;20039;-61
2024/02/17 10:16:49;;;;;;;32.08;16.15;;;;;;;;;;5046104;28;20032;-62
2024/02/17 10:19:15;;;;;;;41.97;17.00;;;;;;;;;;5063872;28;20028;-62
2024/02/17 10:21:41;;;;;;;46.42;17.88;;;;;;;;;;5059449;28;20074;-61
2024/02/17 10:24:07;;;;;;;43.60;17.48;;;;;;;;;;5061008;28;20021;-61
2024/02/17 10:26:33;;;;;;;51.10;17.30;;;;;;;;;;5060118;28;20017;-61
2024/02/17 10:28:59;;;;;;;41.13;14.82;;;;;;;;;;5061778;28;20028;-62
2024/02/17 10:31:26;;;;;;;36.33;15.82;;;;;;;;;;5043893;28;20044;-61
2024/02/17 10:33:52;;;;;;;41.22;17.02;;;;;;;;;;5065908;28;20047;-62
2024/02/17 10:36:19;;;;;;;40.35;16.45;;;;;;;;;;5069039;28;20490;-61
2024/02/17 10:38:45;;;;;;;48.90;18.10;;;;;;;;;;5065205;28;20071;-62
2024/02/17 10:41:12;;;;;;;43.05;18.05;;;;;;;;;;5066100;28;20044;-61
2024/02/17 10:43:41;;;;;;;52.85;17.50;;;;;;;;;;5066653;28;20020;-62
2024/02/17 10:46:12;;;;;;;43.10;18.17;;;;;;;;;;5069909;28;20029;-61
2024/02/17 10:48:41;;;;;;;40.15;17.33;;;;;;;;;;5074685;28;20028;-61
2024/02/17 10:51:08;;;;;;;46.53;17.77;;;;;;;;;;5075445;28;20028;-61
2024/02/17 10:53:42;;;;;;;39.03;17.65;;;;;;;;;;5079114;28;20044;-62
2024/02/17 10:56:15;;;;;;;35.08;17.33;;;;;;;;;;5071752;28;20059;-62
2024/02/17 10:58:41;;;;;;;41.05;18.75;;;;;;;;;;5069491;28;20052;-62
2024/02/17 11:01:08;;;;;;;40.28;18.08;;;;;;;;;;5050647;28;20090;-60
2024/02/17 11:03:37;;;;;;;32.22;17.55;;;;;;;;;;5067623;28;20104;-61
2024/02/17 11:06:05;;;;;;;48.28;18.67;;;;;;;;;;5064433;28;20023;-61
2024/02/17 11:08:32;;;;;;;50.35;19.10;;;;;;;;;;5070658;28;20027;-61
2024/02/17 11:10:58;;;;;;;50.40;19.52;;;;;;;;;;5072105;28;20080;-62
2024/02/17 11:13:26;;;;;;;41.97;18.42;;;;;;;;;;5070228;28;20521;-62
2024/02/17 11:16:07;;;;;;;48.53;18.30;;;;;;;;;;5064021;28;21423;-61
2024/02/17 11:18:36;;;;;;;44.80;17.95;;;;;;;;;;5066621;28;20052;-61
2024/02/17 11:21:03;;;;;;;50.92;17.40;;;;;;;;;;5068392;28;20024;-62
2024/02/17 11:23:39;;;;;;;42.38;16.65;;;;;;;;;;5062270;28;20670;-61
2024/02/17 11:26:09;;;;;;;40.30;17.70;;;;;;;;;;5065230;28;20024;-62
2024/02/17 11:28:35;;;;;;;40.47;18.15;;;;;;;;;;5063963;28;20036;-61
2024/02/17 11:31:06;;;;;;;48.60;19.02;;;;;;;;;;5066914;28;20073;-61
2024/02/17 11:33:32;;;;;;;44.67;19.35;;;;;;;;;;5074227;28;20035;-60
2024/02/17 11:36:03;;;;;;;49.70;17.80;;;;;;;;;;5080439;28;20037;-61
2024/02/17 11:38:30;;;;;;;42.67;18.13;;;;;;;;;;5084307;28;20025;-61
2024/02/17 11:40:59;;;;;;;39.40;18.13;;;;;;;;;;5090499;28;20025;-64
2024/02/17 11:43:29;;;;;;;42.00;17.58;;;;;;;;;;5088116;28;20071;-64
2024/02/17 11:45:55;;;;;;;36.60;17.63;;;;;;;;;;5079604;28;20101;-62
2024/02/17 11:48:21;;;;;;;38.95;17.60;;;;;;;;;;5074982;28;20028;-62
2024/02/17 11:50:48;;;;;;;45.30;17.75;;;;;;;;;;5073710;28;20024;-62
2024/02/17 11:53:14;;;;;;;32.88;15.50;;;;;;;;;;5071287;28;20036;-62
2024/02/17 11:55:41;;;;;;;35.75;16.15;;;;;;;;;;5074295;28;20032;-62
2024/02/17 11:58:09;;;;;;;37.60;15.57;;;;;;;;;;5077276;28;20096;-63
2024/02/17 12:00:38;;;;;;;31.52;14.85;;;;;;;;;;5078833;28;20029;-62
2024/02/17 12:03:05;;;;;;;36.65;14.57;;;;;;;;;;5075262;28;20029;-63
2024/02/17 12:05:31;;;;;;;40.58;15.70;;;;;;;;;;5072258;28;20509;-61
2024/02/17 12:07:57;;;;;;;44.38;16.33;;;;;;;;;;5068367;28;20100;-62
2024/02/17 12:10:26;;;;;;;35.25;13.68;;;;;;;;;;5063258;28;20031;-61
2024/02/17 12:12:52;;;;;;;31.60;15.73;;;;;;;;;;5063873;28;20033;-61
2024/02/17 12:15:18;;;;;;;29.42;14.85;;;;;;;;;;5067213;28;20533;-62
2024/02/17 12:17:44;;;;;;;29.92;15.43;;;;;;;;;;5069057;28;20020;-60
2024/02/17 12:20:14;;;;;;;31.67;15.35;;;;;;;;;;5068693;28;20702;-62
2024/02/17 12:22:42;;;;;;;39.00;14.63;;;;;;;;;;5066674;28;20099;-60
2024/02/17 12:25:09;;;;;;;26.75;14.52;;;;;;;;;;5068458;28;20037;-60
2024/02/17 12:27:35;;;;;;;30.00;13.82;;;;;;;;;;5069709;28;20028;-61
2024/02/17 12:30:01;;;;;;;33.92;14.95;;;;;;;;;;5067266;28;20056;-60
2024/02/17 12:32:27;;;;;;;36.70;15.45;;;;;;;;;;5069843;28;20486;-61
2024/02/17 12:34:53;;;;;;;31.17;14.60;;;;;;;;;;5067119;28;20529;-62
2024/02/17 12:37:19;;;;;;;32.10;14.60;;;;;;;;;;5072483;28;20029;-61
2024/02/17 12:39:46;;;;;;;33.95;14.98;;;;;;;;;;5072871;28;20078;-61
2024/02/17 12:42:13;;;;;;;31.60;14.63;;;;;;;;;;5066816;28;20020;-61
2024/02/17 12:44:40;;;;;;;30.38;14.73;;;;;;;;;;5069155;28;20120;-61
2024/02/17 12:47:21;;;;;;;29.85;13.52;;;;;;;;;;5067938;28;20044;-61
2024/02/17 12:49:47;;;;;;;36.83;14.32;;;;;;;;;;5062674;28;20033;-61
2024/02/17 12:52:18;;;;;;;31.73;14.32;;;;;;;;;;5050655;28;20036;-61
2024/02/17 12:54:43;;;;;;;31.92;13.80;;;;;;;;;;5069004;28;20035;-61
2024/02/17 12:57:09;;;;;;;33.85;14.35;;;;;;;;;;5065787;28;20029;-61
2024/02/17 12:59:35;;;;;;;39.45;15.65;;;;;;;;;;5071182;28;20056;-60
2024/02/17 13:02:01;;;;;;;32.28;14.60;;;;;;;;;;5071183;28;20036;-59
2024/02/17 13:04:27;;;;;;;34.42;14.55;;;;;;;;;;5065772;28;20024;-60
2024/02/17 13:06:53;;;;;;;33.13;13.88;;;;;;;;;;5072057;28;20094;-61
2024/02/17 13:09:19;;;;;;;37.05;14.20;;;;;;;;;;5070580;28;20360;-56
2024/02/17 13:11:45;;;;;;;36.15;14.88;;;;;;;;;;5072918;28;20024;-62
2024/02/17 13:14:12;;;;;;;36.58;15.75;;;;;;;;;;5071730;28;20502;-60
2024/02/17 13:16:38;;;;;;;29.80;14.55;;;;;;;;;;5068592;28;20407;-60
2024/02/17 13:19:04;;;;;;;40.80;14.32;;;;;;;;;;5070063;28;20134;-62
2024/02/17 13:21:30;;;;;;;29.63;14.02;;;;;;;;;;5051637;28;20020;-60
2024/02/17 13:23:56;;;;;;;40.30;13.98;;;;;;;;;;5053835;28;20048;-60
2024/02/17 13:26:23;;;;;;;28.25;13.50;;;;;;;;;;5072112;28;20029;-61
2024/02/17 13:28:49;;;;;;;31.98;13.68;;;;;;;;;;5068914;28;20025;-60
2024/02/17 13:31:19;;;;;;;26.88;13.45;;;;;;;;;;5066619;28;20490;-60
2024/02/17 13:33:45;;;;;;;31.27;15.13;;;;;;;;;;5067741;28;20020;-61
2024/02/17 13:36:11;;;;;;;29.42;12.63;;;;;;;;;;5068787;28;20025;-61
2024/02/17 13:38:37;;;;;;;36.78;15.18;;;;;;;;;;5066275;28;20111;-61
2024/02/17 13:41:03;;;;;;;25.50;13.75;;;;;;;;;;5053806;28;20402;-60
2024/02/17 13:43:29;;;;;;;35.42;13.77;;;;;;;;;;5074932;28;20072;-60
2024/02/17 13:45:55;;;;;;;36.75;13.23;;;;;;;;;;5070642;28;20029;-61
2024/02/17 13:48:22;;;;;;;27.60;12.80;;;;;;;;;;5065075;28;20051;-61
2024/02/17 13:50:49;;;;;;;31.92;13.25;;;;;;;;;;5049549;28;20103;-62
2024/02/17 13:53:15;;;;;;;24.35;11.65;;;;;;;;;;5067375;28;20040;-61
2024/02/17 13:55:41;;;;;;;24.15;11.43;;;;;;;;;;5047167;28;20106;-59
2024/02/17 13:58:07;;;;;;;27.50;12.65;;;;;;;;;;5066594;28;20099;-61
2024/02/17 14:00:33;;;;;;;32.58;12.68;;;;;;;;;;5067291;28;20132;-61
2024/02/17 14:03:01;;;;;;;32.33;12.43;;;;;;;;;;5070481;28;20036;-60
2024/02/17 14:05:27;;;;;;;33.90;11.05;;;;;;;;;;5053431;28;20397;-61
2024/02/17 14:07:53;;;;;;;31.20;11.48;;;;;;;;;;5063268;28;20020;-61
2024/02/17 14:10:19;;;;;;;22.85;11.07;;;;;;;;;;5067465;28;20028;-63
2024/02/17 14:12:45;;;;;;;23.92;9.55;;;;;;;;;;5067349;28;20021;-61
2024/02/17 14:15:11;;;;;;;33.45;10.32;;;;;;;;;;5066868;28;20079;-61